Time;durP1;ratioP1;P1;durP2;ratioP2;P2;SDS_P1;SDS_P2;PMS_P1;PMS_P2;Temp;Humidity;BMP_temperature;BMP_pressure;BME280_temperature;BME280_humidity;BME280_pressure;Samples;Min_cycle;Max_cycle;Signal;HPM_P1;HPM_P2
2023/12/14 00:02:22;;;;;;;26.60;12.87;;;;;;;-145.18;100.00;46664.31;5084515;28;20127;-74
2023/12/14 00:04:48;;;;;;;26.43;11.43;;;;;;;-145.18;100.00;46672.13;5080678;28;20055;-73
2023/12/14 00:07:15;;;;;;;27.17;12.37;;;;;;;-145.18;100.00;46668.22;5084990;28;20044;-73
2023/12/14 00:09:40;;;;;;;29.47;13.53;;;;;;;-145.18;100.00;46672.13;5087433;28;20032;-74
2023/12/14 00:12:06;;;;;;;28.13;11.90;;;;;;;-145.18;100.00;46683.84;5085182;28;20265;-74
2023/12/14 00:14:31;;;;;;;34.00;13.10;;;;;;;-145.18;100.00;46676.03;5071382;28;20037;-74
2023/12/14 00:16:59;;;;;;;24.53;10.53;;;;;;;-145.18;100.00;46677.97;5075816;28;20131;-74
2023/12/14 00:19:24;;;;;;;28.03;12.53;;;;;;;-145.18;100.00;46668.22;5082488;28;20050;-74
2023/12/14 00:21:50;;;;;;;24.40;11.23;;;;;;;-145.18;100.00;46676.03;5081318;28;20330;-72
2023/12/14 00:24:15;;;;;;;26.37;11.47;;;;;;;-145.18;100.00;46674.06;5081785;28;20042;-73
2023/12/14 00:26:40;;;;;;;27.07;11.63;;;;;;;-145.18;100.00;46670.16;5077736;28;20024;-73
2023/12/14 00:29:06;;;;;;;24.27;11.47;;;;;;;-145.18;100.00;46674.06;5091483;28;20099;-73
2023/12/14 00:31:31;;;;;;;20.87;9.77;;;;;;;-145.18;100.00;46679.94;5086290;28;20043;-74
2023/12/14 00:33:56;;;;;;;20.10;9.13;;;;;;;-145.18;100.00;46672.13;5088135;28;20606;-74
2023/12/14 00:36:22;;;;;;;19.40;9.73;;;;;;;-145.18;100.00;46670.16;5081611;28;20035;-74
2023/12/14 00:38:47;;;;;;;26.30;10.77;;;;;;;-145.18;100.00;46676.03;5080924;28;20123;-74
2023/12/14 00:41:13;;;;;;;27.97;10.90;;;;;;;-145.18;100.00;46670.16;5089539;28;20031;-73
2023/12/14 00:43:38;;;;;;;24.33;10.13;;;;;;;-145.18;100.00;46687.75;5071949;28;20048;-73
2023/12/14 00:46:04;;;;;;;25.03;11.57;;;;;;;-145.18;100.00;46676.03;5072689;28;20086;-74
2023/12/14 00:48:29;;;;;;;27.00;12.53;;;;;;;-145.18;100.00;46687.75;5070905;28;20064;-73
2023/12/14 00:50:54;;;;;;;23.23;11.23;;;;;;;-145.18;100.00;46681.88;5072798;28;20032;-74
2023/12/14 00:53:20;;;;;;;29.00;12.40;;;;;;;-145.18;100.00;46676.03;5085231;28;20044;-65
2023/12/14 00:55:45;;;;;;;25.30;12.10;;;;;;;-145.18;100.00;46677.97;5085707;28;20040;-65
2023/12/14 00:58:12;;;;;;;25.60;11.57;;;;;;;-145.18;100.00;46672.13;5093521;28;20383;-65
2023/12/14 01:00:38;;;;;;;25.70;11.63;;;;;;;-145.18;100.00;46676.03;5081710;28;20060;-65
2023/12/14 01:03:04;;;;;;;26.37;13.17;;;;;;;-145.18;100.00;46685.78;5086450;28;20289;-65
2023/12/14 01:05:29;;;;;;;37.17;12.73;;;;;;;-145.18;100.00;46677.97;5081218;28;20473;-65
2023/12/14 01:07:55;;;;;;;28.23;13.47;;;;;;;-145.18;100.00;46679.94;5087471;28;20032;-66
2023/12/14 01:10:20;;;;;;;25.13;12.77;;;;;;;-145.18;100.00;46691.66;5086450;28;20391;-65
2023/12/14 01:12:45;;;;;;;22.93;12.00;;;;;;;-145.18;100.00;46677.97;5075468;28;20507;-65
2023/12/14 01:15:11;;;;;;;23.50;12.10;;;;;;;-145.18;100.00;46676.03;5092976;28;20047;-65
2023/12/14 01:17:37;;;;;;;22.33;11.57;;;;;;;-145.18;100.00;46685.78;5088431;28;20044;-65
2023/12/14 01:20:07;;;;;;;30.80;12.00;;;;;;;-145.18;100.00;46689.69;5086202;28;20210;-65
2023/12/14 01:22:33;;;;;;;27.70;11.43;;;;;;;-145.18;100.00;46685.78;5089579;28;20670;-65
2023/12/14 01:24:59;;;;;;;21.80;10.80;;;;;;;-145.18;100.00;46683.84;5085236;28;20265;-65
2023/12/14 01:27:25;;;;;;;23.33;11.43;;;;;;;-145.18;100.00;46677.97;5083821;28;20081;-65
2023/12/14 01:29:50;;;;;;;20.60;11.27;;;;;;;-145.18;100.00;46679.94;5086624;28;20115;-65
2023/12/14 01:32:15;;;;;;;23.30;11.43;;;;;;;-145.18;100.00;46691.66;5087200;28;20039;-65
2023/12/14 01:34:41;;;;;;;25.03;11.63;;;;;;;-145.18;100.00;46677.97;5091071;28;20494;-65
2023/12/14 01:37:06;;;;;;;20.20;11.00;;;;;;;-145.18;100.00;46676.03;5084904;28;20043;-65
2023/12/14 01:39:32;;;;;;;18.20;9.53;;;;;;;-145.18;100.00;46681.88;5080045;28;20052;-65
2023/12/14 01:41:58;;;;;;;22.30;12.03;;;;;;;-145.18;100.00;46693.59;5085829;28;20373;-65
2023/12/14 01:44:23;;;;;;;20.43;10.53;;;;;;;-145.18;100.00;46691.66;5092748;28;20042;-65
2023/12/14 01:46:49;;;;;;;17.90;10.77;;;;;;;-145.18;100.00;46695.56;5091328;28;20046;-65
2023/12/14 01:49:14;;;;;;;19.67;11.40;;;;;;;-145.18;100.00;46697.50;5090160;28;20028;-65
2023/12/14 01:51:39;;;;;;;20.97;10.30;;;;;;;-145.18;100.00;46681.88;5083829;28;20399;-65
2023/12/14 01:54:05;;;;;;;20.93;11.03;;;;;;;-145.18;100.00;46691.66;5088497;28;20074;-65
2023/12/14 01:56:30;;;;;;;20.97;10.73;;;;;;;-145.18;100.00;46701.41;5077391;28;20540;-65
2023/12/14 01:58:56;;;;;;;20.70;10.80;;;;;;;-145.18;100.00;46699.47;5085999;28;20097;-65
2023/12/14 02:01:39;;;;;;;19.37;10.80;;;;;;;-145.18;100.00;46697.50;5075963;28;20039;-74
2023/12/14 02:04:06;;;;;;;19.87;11.20;;;;;;;-145.18;100.00;46701.41;5083578;28;20034;-73
2023/12/14 02:06:32;;;;;;;18.47;10.77;;;;;;;-145.18;100.00;46691.66;5092314;28;20264;-73
2023/12/14 02:08:57;;;;;;;20.77;11.07;;;;;;;-145.18;100.00;46701.41;5085292;28;20362;-74
2023/12/14 02:11:22;;;;;;;20.93;11.40;;;;;;;-145.18;100.00;46695.56;5103178;28;20800;-75
2023/12/14 02:13:48;;;;;;;19.43;9.53;;;;;;;-145.18;100.00;46703.38;5084572;28;20043;-73
2023/12/14 02:16:13;;;;;;;22.83;10.23;;;;;;;-145.18;100.00;46699.47;5087634;28;20135;-74
2023/12/14 02:18:39;;;;;;;18.33;10.23;;;;;;;-145.18;100.00;46679.94;5089557;28;20032;-73
2023/12/14 02:21:04;;;;;;;20.40;11.30;;;;;;;-145.18;100.00;46689.69;5072340;28;20034;-74
2023/12/14 02:23:30;;;;;;;19.23;9.97;;;;;;;-145.18;100.00;46685.78;5090714;28;20044;-73
2023/12/14 02:25:55;;;;;;;20.37;10.93;;;;;;;-145.18;100.00;46705.31;5083580;28;20039;-74
2023/12/14 02:28:21;;;;;;;20.87;11.37;;;;;;;-145.18;100.00;46697.50;5087923;28;20380;-74
2023/12/14 02:30:46;;;;;;;23.63;11.10;;;;;;;-145.18;100.00;46701.41;5089600;28;20044;-73
2023/12/14 02:33:11;;;;;;;23.67;10.83;;;;;;;-145.18;100.00;46695.56;5087855;28;20033;-73
2023/12/14 02:35:37;;;;;;;18.83;10.23;;;;;;;-145.18;100.00;46707.28;5074293;28;20027;-73
2023/12/14 02:38:02;;;;;;;20.13;11.30;;;;;;;-145.18;100.00;46693.59;5084936;28;20115;-73
2023/12/14 02:40:27;;;;;;;23.60;12.03;;;;;;;-145.18;100.00;46689.69;5091741;28;20042;-73
2023/12/14 02:42:53;;;;;;;24.70;12.47;;;;;;;-145.18;100.00;46703.38;5091030;28;20032;-75
2023/12/14 02:45:18;;;;;;;23.47;11.37;;;;;;;-145.18;100.00;46689.69;5083235;28;20032;-74
2023/12/14 02:47:44;;;;;;;21.20;11.63;;;;;;;-145.18;100.00;46699.47;5081065;28;20027;-74
2023/12/14 02:50:09;;;;;;;20.53;10.57;;;;;;;-145.18;100.00;46689.69;5086126;28;20040;-73
2023/12/14 02:52:35;;;;;;;19.17;10.97;;;;;;;-145.18;100.00;46683.84;5080949;28;20107;-74
2023/12/14 02:55:00;;;;;;;20.43;11.50;;;;;;;-145.18;100.00;46691.66;5074126;28;20039;-74
2023/12/14 02:57:26;;;;;;;22.17;12.00;;;;;;;-145.18;100.00;46693.59;5079039;28;20031;-73
2023/12/14 02:59:51;;;;;;;22.87;10.63;;;;;;;-145.18;100.00;46683.84;5084577;28;20024;-73
2023/12/14 03:02:16;;;;;;;18.70;10.57;;;;;;;-145.18;100.00;46685.78;5080180;28;20089;-74
2023/12/14 03:04:42;;;;;;;19.93;10.23;;;;;;;-145.18;100.00;46695.56;5092335;28;20400;-73
2023/12/14 03:07:07;;;;;;;19.70;10.47;;;;;;;-145.18;100.00;46681.88;5077817;28;20032;-73
2023/12/14 03:09:33;;;;;;;24.30;9.97;;;;;;;-145.18;100.00;46691.66;5077690;28;20028;-74
2023/12/14 03:12:00;;;;;;;19.73;10.73;;;;;;;-145.18;100.00;46687.75;5083179;28;20077;-73
2023/12/14 03:14:26;;;;;;;24.30;11.83;;;;;;;-145.18;100.00;46691.66;5083118;28;20265;-74
2023/12/14 03:16:51;;;;;;;19.47;11.07;;;;;;;-145.18;100.00;46687.75;5085223;28;20304;-74
2023/12/14 03:19:16;;;;;;;21.57;10.33;;;;;;;-145.18;100.00;46683.84;5077127;28;20122;-73
2023/12/14 03:21:43;;;;;;;23.13;12.47;;;;;;;-145.18;100.00;46699.47;5086398;28;20028;-74
2023/12/14 03:24:09;;;;;;;20.60;11.77;;;;;;;-145.18;100.00;46683.84;5083010;28;20056;-74
2023/12/14 03:26:35;;;;;;;23.40;12.30;;;;;;;-145.18;100.00;46691.66;5086434;28;20264;-73
2023/12/14 03:29:00;;;;;;;29.17;13.20;;;;;;;-145.18;100.00;46683.84;5082088;28;20260;-74
2023/12/14 03:31:25;;;;;;;26.00;12.33;;;;;;;-145.18;100.00;46689.69;5075993;28;20029;-73
2023/12/14 03:33:51;;;;;;;24.60;13.23;;;;;;;-145.18;100.00;46695.56;5084902;28;20032;-73
2023/12/14 03:36:16;;;;;;;23.20;12.50;;;;;;;-145.18;100.00;46695.56;5086389;28;20040;-73
2023/12/14 03:38:42;;;;;;;27.93;12.90;;;;;;;-145.18;100.00;46685.78;5071416;28;20119;-73
2023/12/14 03:41:07;;;;;;;25.30;12.97;;;;;;;-145.18;100.00;46681.88;5085647;28;20036;-73
2023/12/14 03:43:32;;;;;;;25.73;11.83;;;;;;;-145.18;100.00;46689.69;5089092;28;20031;-74
2023/12/14 03:45:58;;;;;;;26.60;13.47;;;;;;;-145.18;100.00;46687.75;5083532;28;20483;-74
2023/12/14 03:48:23;;;;;;;28.50;11.63;;;;;;;-145.18;100.00;46685.78;5089662;28;20028;-73
2023/12/14 03:50:48;;;;;;;27.23;12.57;;;;;;;-145.18;100.00;46689.69;5073402;28;20097;-74
2023/12/14 03:53:14;;;;;;;22.77;11.63;;;;;;;-145.18;100.00;46699.47;5090788;28;20046;-74
2023/12/14 03:55:39;;;;;;;21.80;11.30;;;;;;;-145.18;100.00;46687.75;5083981;28;20042;-74
2023/12/14 03:58:04;;;;;;;26.80;11.37;;;;;;;-145.18;100.00;46687.75;5073367;28;20024;-74
2023/12/14 04:00:30;;;;;;;23.20;12.27;;;;;;;-145.18;100.00;46689.69;5083170;28;20028;-73
2023/12/14 04:02:55;;;;;;;27.67;13.97;;;;;;;-145.18;100.00;46691.66;5075044;28;20122;-73
2023/12/14 04:05:21;;;;;;;24.97;12.53;;;;;;;-145.18;100.00;46685.78;5070819;28;20029;-73
2023/12/14 04:07:46;;;;;;;26.13;12.07;;;;;;;-145.18;100.00;46687.75;5077727;28;20500;-73
2023/12/14 04:10:13;;;;;;;30.07;12.43;;;;;;;-145.18;100.00;46695.56;5090562;28;20131;-73
2023/12/14 04:12:39;;;;;;;21.10;10.47;;;;;;;-145.18;100.00;46697.50;5079403;28;20044;-74
2023/12/14 04:15:05;;;;;;;24.40;11.03;;;;;;;-145.18;100.00;46705.31;5077977;28;20265;-73
2023/12/14 04:17:31;;;;;;;24.03;11.90;;;;;;;-145.18;100.00;46679.94;5076479;28;20288;-73
2023/12/14 04:19:57;;;;;;;25.80;12.60;;;;;;;-145.18;100.00;46699.47;5071780;28;20273;-73
2023/12/14 04:22:22;;;;;;;25.80;11.67;;;;;;;-145.18;100.00;46689.69;5074194;28;20037;-74
2023/12/14 04:24:48;;;;;;;24.70;11.60;;;;;;;-145.18;100.00;46691.66;5085972;28;20024;-74
2023/12/14 04:27:13;;;;;;;26.30;12.60;;;;;;;-145.18;100.00;46703.38;5083683;28;20042;-73
2023/12/14 04:29:38;;;;;;;25.80;12.27;;;;;;;-145.18;100.00;46697.50;5093257;28;20105;-73
2023/12/14 04:32:04;;;;;;;25.30;11.30;;;;;;;-145.18;100.00;46695.56;5079478;28;20063;-73
2023/12/14 04:34:30;;;;;;;25.00;10.50;;;;;;;-145.18;100.00;46697.50;5087520;28;20043;-74
2023/12/14 04:36:57;;;;;;;22.57;12.23;;;;;;;-145.18;100.00;46691.66;5077017;28;20813;-73
2023/12/14 04:39:26;;;;;;;22.57;10.87;;;;;;;-145.18;100.00;46691.66;5079794;28;20035;-73
2023/12/14 04:41:52;;;;;;;25.97;11.77;;;;;;;-145.18;100.00;46685.78;5085436;28;20311;-74
2023/12/14 04:44:21;;;;;;;28.23;12.13;;;;;;;-145.18;100.00;46687.75;5076247;28;20289;-73
2023/12/14 04:46:48;;;;;;;25.83;11.10;;;;;;;-145.18;100.00;46681.88;5073771;28;20326;-72
2023/12/14 04:49:14;;;;;;;22.70;10.27;;;;;;;-145.18;100.00;46701.41;5090546;28;20749;-73
2023/12/14 04:51:39;;;;;;;23.53;10.47;;;;;;;-145.18;100.00;46685.78;5095252;28;20321;-65
2023/12/14 04:54:05;;;;;;;28.73;12.10;;;;;;;-145.18;100.00;46699.47;5091021;28;20024;-65
2023/12/14 04:56:30;;;;;;;26.77;11.33;;;;;;;-145.18;100.00;46701.41;5080577;28;20036;-65
2023/12/14 04:58:56;;;;;;;26.77;10.93;;;;;;;-145.18;100.00;46699.47;5089972;28;20523;-65
2023/12/14 05:01:21;;;;;;;23.90;10.00;;;;;;;-145.18;100.00;46697.50;5093938;28;20036;-65
2023/12/14 05:03:47;;;;;;;28.57;11.70;;;;;;;-145.18;100.00;46701.41;5089123;28;20036;-74
2023/12/14 05:06:12;;;;;;;25.40;10.80;;;;;;;-145.18;100.00;46695.56;5074880;28;20037;-73
2023/12/14 05:08:37;;;;;;;20.73;9.83;;;;;;;-145.18;100.00;46701.41;5081109;28;20028;-73
2023/12/14 05:11:03;;;;;;;19.97;8.97;;;;;;;-145.18;100.00;46695.56;5085841;28;20024;-73
2023/12/14 05:13:28;;;;;;;18.80;8.63;;;;;;;-145.18;100.00;46695.56;5079922;28;20032;-73
2023/12/14 05:15:54;;;;;;;22.33;8.63;;;;;;;-145.18;100.00;46699.47;5075763;28;20132;-73
2023/12/14 05:18:19;;;;;;;16.77;8.40;;;;;;;-145.18;100.00;46703.38;5086892;28;20044;-73
2023/12/14 05:20:45;;;;;;;22.23;9.20;;;;;;;-145.18;100.00;46705.31;5087829;28;20139;-73
2023/12/14 05:23:12;;;;;;;16.67;8.63;;;;;;;-145.18;100.00;46705.31;5073170;28;20025;-74
2023/12/14 05:25:37;;;;;;;18.80;8.77;;;;;;;-145.18;100.00;46705.31;5083538;28;20257;-73
2023/12/14 05:28:03;;;;;;;13.73;7.00;;;;;;;-145.18;100.00;46701.41;5086478;28;20265;-73
2023/12/14 05:30:29;;;;;;;14.37;7.57;;;;;;;-145.18;100.00;46709.22;5079917;28;20059;-73
2023/12/14 05:32:54;;;;;;;13.43;7.27;;;;;;;-145.18;100.00;46709.22;5085934;28;20036;-73
2023/12/14 05:35:19;;;;;;;14.63;7.80;;;;;;;-145.18;100.00;46709.22;5083712;28;20253;-72
2023/12/14 05:37:45;;;;;;;17.47;8.13;;;;;;;-145.18;100.00;46707.28;5082412;28;20067;-74
2023/12/14 05:40:11;;;;;;;12.13;5.77;;;;;;;-145.18;100.00;46709.22;5089097;28;20099;-72
2023/12/14 05:42:37;;;;;;;12.70;6.00;;;;;;;-145.18;100.00;46711.19;5074306;28;20036;-73
2023/12/14 05:45:03;;;;;;;12.67;7.00;;;;;;;-145.18;100.00;46715.09;5074283;28;20032;-72
2023/12/14 05:47:30;;;;;;;11.63;6.20;;;;;;;-145.18;100.00;46711.19;5081103;28;20265;-73
2023/12/14 05:49:55;;;;;;;15.40;7.17;;;;;;;-145.18;100.00;46713.13;5078728;28;20298;-73
2023/12/14 05:52:20;;;;;;;12.50;6.87;;;;;;;-145.18;100.00;46709.22;5090601;28;20256;-73
2023/12/14 05:54:46;;;;;;;14.37;6.67;;;;;;;-145.18;100.00;46713.13;5083560;28;20777;-73
2023/12/14 05:57:12;;;;;;;12.27;6.50;;;;;;;-145.18;100.00;46715.09;5079723;28;20024;-73
2023/12/14 05:59:38;;;;;;;15.13;5.77;;;;;;;-145.18;100.00;46711.19;5074563;28;20493;-73
2023/12/14 06:02:04;;;;;;;14.60;6.73;;;;;;;-145.18;100.00;46713.13;5081422;28;21156;-73
2023/12/14 06:04:30;;;;;;;16.97;6.93;;;;;;;-145.18;100.00;46711.19;5089858;28;20758;-72
2023/12/14 06:06:55;;;;;;;15.33;7.23;;;;;;;-145.18;100.00;46713.13;5087159;28;20265;-73
2023/12/14 06:09:24;;;;;;;13.90;7.27;;;;;;;-145.18;100.00;46711.19;5082831;28;20029;-73
2023/12/14 06:11:51;;;;;;;13.60;6.90;;;;;;;-145.18;100.00;46715.09;5080571;28;20115;-73
2023/12/14 06:14:16;;;;;;;16.07;7.00;;;;;;;-145.18;100.00;46717.03;5087393;28;20635;-73
2023/12/14 06:16:42;;;;;;;11.93;6.90;;;;;;;-145.18;100.00;46719.00;5092404;28;20289;-74
2023/12/14 06:19:07;;;;;;;14.30;6.97;;;;;;;-145.18;100.00;46713.13;5084333;28;20112;-72
2023/12/14 06:21:33;;;;;;;12.80;6.47;;;;;;;-145.18;100.00;46720.94;5078107;28;20036;-73
2023/12/14 06:23:59;;;;;;;15.20;6.23;;;;;;;-145.18;100.00;46709.22;5080921;28;20054;-72
2023/12/14 06:26:25;;;;;;;13.20;6.73;;;;;;;-145.18;100.00;46715.09;5084135;28;20268;-73
2023/12/14 06:28:50;;;;;;;14.20;7.30;;;;;;;-145.18;100.00;46717.03;5086037;28;20481;-73
2023/12/14 06:31:18;;;;;;;11.10;6.30;;;;;;;-145.18;100.00;46713.13;5086601;28;20460;-73
2023/12/14 06:33:43;;;;;;;17.47;7.80;;;;;;;-145.18;100.00;46709.22;5093897;28;20071;-73
2023/12/14 06:36:09;;;;;;;17.27;6.87;;;;;;;-145.18;100.00;46713.13;5076731;28;20300;-73
2023/12/14 06:38:39;;;;;;;18.47;7.80;;;;;;;-145.18;100.00;46715.09;5090150;28;20118;-72
2023/12/14 06:41:04;;;;;;;17.60;6.80;;;;;;;-145.18;100.00;46717.03;5089051;28;20036;-73
2023/12/14 06:43:30;;;;;;;16.23;6.80;;;;;;;-145.18;100.00;46713.13;5081307;28;20288;-73
2023/12/14 06:45:55;;;;;;;18.60;7.47;;;;;;;-145.18;100.00;46717.03;5076053;28;20370;-73
2023/12/14 06:48:21;;;;;;;13.30;7.00;;;;;;;-145.18;100.00;46709.22;5084223;28;20032;-72
2023/12/14 06:50:46;;;;;;;11.53;6.20;;;;;;;-145.18;100.00;46717.03;5084141;28;20429;-72
2023/12/14 06:53:12;;;;;;;14.50;6.60;;;;;;;-145.18;100.00;46709.22;5088586;28;20032;-73
2023/12/14 06:55:37;;;;;;;12.53;6.37;;;;;;;-145.18;100.00;46715.09;5076464;28;20078;-73
2023/12/14 06:58:02;;;;;;;14.23;6.23;;;;;;;-145.18;100.00;46715.09;5084499;28;20031;-72
2023/12/14 07:00:29;;;;;;;15.03;6.80;;;;;;;-145.18;100.00;46715.09;5076308;28;20024;-73
2023/12/14 07:02:55;;;;;;;12.47;6.83;;;;;;;-145.18;100.00;46715.09;5079104;28;20682;-73
2023/12/14 07:05:20;;;;;;;18.90;8.10;;;;;;;-145.18;100.00;46715.09;5079558;28;20287;-74
2023/12/14 07:07:45;;;;;;;12.53;7.37;;;;;;;-145.18;100.00;46717.03;5090060;28;20154;-73
2023/12/14 07:10:11;;;;;;;14.77;6.83;;;;;;;-145.18;100.00;46715.09;5076055;28;20062;-73
2023/12/14 07:12:36;;;;;;;16.83;7.47;;;;;;;-145.18;100.00;46717.03;5080938;28;20480;-72
2023/12/14 07:15:02;;;;;;;19.90;7.43;;;;;;;-145.18;100.00;46707.28;5090207;28;20032;-73
2023/12/14 07:17:27;;;;;;;12.27;6.63;;;;;;;-145.18;100.00;46715.09;5072588;28;20139;-73
2023/12/14 07:19:53;;;;;;;15.77;7.37;;;;;;;-145.18;100.00;46713.13;5083621;28;20037;-73
2023/12/14 07:22:19;;;;;;;16.00;6.90;;;;;;;-145.18;100.00;46719.00;5077426;28;20690;-73
2023/12/14 07:24:44;;;;;;;15.27;8.07;;;;;;;-145.18;100.00;46715.09;5077893;28;20073;-72
2023/12/14 07:27:09;;;;;;;17.47;7.07;;;;;;;-145.18;100.00;46715.09;5072001;28;20077;-72
2023/12/14 07:29:35;;;;;;;16.87;7.60;;;;;;;-145.18;100.00;46715.09;5083360;28;20383;-73
2023/12/14 07:32:00;;;;;;;10.07;5.20;;;;;;;-145.18;100.00;46711.19;5072322;28;20103;-73
2023/12/14 07:34:28;;;;;;;12.50;6.13;;;;;;;-145.18;100.00;46711.19;5073846;28;20040;-73
2023/12/14 07:36:53;;;;;;;13.37;7.50;;;;;;;-145.18;100.00;46713.13;5083786;28;20070;-73
2023/12/14 07:39:19;;;;;;;15.17;7.73;;;;;;;-145.18;100.00;46715.09;5071899;28;20634;-73
2023/12/14 07:41:44;;;;;;;14.50;7.60;;;;;;;-145.18;100.00;46715.09;5071937;28;20115;-65
2023/12/14 07:44:10;;;;;;;13.90;7.13;;;;;;;-145.18;100.00;46715.09;5072406;28;20127;-65
2023/12/14 07:46:36;;;;;;;14.97;6.93;;;;;;;-145.18;100.00;46715.09;5087730;28;20111;-65
2023/12/14 07:49:02;;;;;;;14.77;7.60;;;;;;;-145.18;100.00;46717.03;5073155;28;20047;-65
2023/12/14 07:51:27;;;;;;;13.10;5.60;;;;;;;-145.18;100.00;46719.00;5077082;28;20256;-65
2023/12/14 07:53:53;;;;;;;19.70;7.67;;;;;;;-145.18;100.00;46719.00;5079410;28;20032;-65
2023/12/14 07:56:18;;;;;;;15.17;8.07;;;;;;;-145.18;100.00;46717.03;5075609;28;20031;-65
2023/12/14 07:58:43;;;;;;;12.90;7.90;;;;;;;-145.18;100.00;46715.09;5087145;28;20031;-65
2023/12/14 08:01:09;;;;;;;15.33;7.53;;;;;;;-145.18;100.00;46717.03;5079032;28;20113;-65
2023/12/14 08:03:35;;;;;;;12.87;6.60;;;;;;;-145.18;100.00;46717.03;5076002;28;20056;-65
2023/12/14 08:06:00;;;;;;;14.87;7.27;;;;;;;-145.18;100.00;46720.94;5081903;28;20360;-65
2023/12/14 08:08:26;;;;;;;12.33;7.40;;;;;;;-145.18;100.00;46719.00;5077328;28;20265;-65
2023/12/14 08:10:51;;;;;;;12.97;7.07;;;;;;;-145.18;100.00;46720.94;5076062;28;20024;-65
2023/12/14 08:13:16;;;;;;;15.07;8.10;;;;;;;-145.18;100.00;46715.09;5081399;28;20504;-65
2023/12/14 08:15:42;;;;;;;13.77;7.53;;;;;;;-145.18;100.00;46719.00;5081299;28;20031;-65
2023/12/14 08:18:07;;;;;;;13.87;8.30;;;;;;;-145.18;100.00;46717.03;5089072;28;20078;-65
2023/12/14 08:20:33;;;;;;;14.23;8.47;;;;;;;-145.18;100.00;46719.00;5075847;28;20028;-65
2023/12/14 08:22:58;;;;;;;17.67;7.90;;;;;;;-145.18;100.00;46715.09;5075550;28;20024;-65
2023/12/14 08:25:24;;;;;;;15.07;8.30;;;;;;;-145.18;100.00;46719.00;5082355;28;20033;-65
2023/12/14 08:27:50;;;;;;;13.00;7.77;;;;;;;-145.18;100.00;46713.13;5075130;28;20415;-65
2023/12/14 08:30:16;;;;;;;13.80;7.43;;;;;;;-145.18;100.00;46720.94;5094279;28;20051;-65
2023/12/14 08:32:41;;;;;;;18.20;8.80;;;;;;;-145.18;100.00;46719.00;5093689;28;20256;-65
2023/12/14 08:35:07;;;;;;;13.67;7.80;;;;;;;-145.18;100.00;46719.00;5089217;28;20287;-65
2023/12/14 08:37:33;;;;;;;10.10;6.60;;;;;;;-145.18;100.00;46717.03;5075423;28;20029;-65
2023/12/14 08:39:58;;;;;;;11.37;6.23;;;;;;;-145.18;100.00;46717.03;5086195;28;20100;-65
2023/12/14 08:42:23;;;;;;;12.47;7.23;;;;;;;-145.18;100.00;46717.03;5081844;28;20052;-65
2023/12/14 08:44:49;;;;;;;13.50;7.17;;;;;;;-145.18;100.00;46719.00;5075050;28;20231;-65
2023/12/14 08:47:14;;;;;;;16.13;7.30;;;;;;;-145.18;100.00;46719.00;5075756;28;20165;-65
2023/12/14 08:49:39;;;;;;;10.60;6.33;;;;;;;-145.18;100.00;46719.00;5075232;28;20492;-65
2023/12/14 08:52:05;;;;;;;13.13;6.67;;;;;;;-145.18;100.00;46722.91;5086175;28;20028;-65
2023/12/14 08:54:30;;;;;;;13.57;7.47;;;;;;;-145.18;100.00;46722.91;5081548;28;20035;-65
2023/12/14 08:56:56;;;;;;;12.50;6.33;;;;;;;-145.18;100.00;46724.84;5082678;28;20040;-65
2023/12/14 08:59:21;;;;;;;12.07;7.13;;;;;;;-145.18;100.00;46722.91;5089908;28;20450;-65
2023/12/14 09:01:46;;;;;;;16.40;7.43;;;;;;;-145.18;100.00;46724.84;5074820;28;20055;-65
2023/12/14 09:04:13;;;;;;;11.67;6.77;;;;;;;-145.18;100.00;46717.03;5075455;28;20037;-65
2023/12/14 09:06:42;;;;;;;13.10;6.50;;;;;;;-145.18;100.00;46719.00;5090311;28;20056;-65
2023/12/14 09:09:07;;;;;;;13.63;7.07;;;;;;;-145.18;100.00;46719.00;5075028;28;20268;-65
2023/12/14 09:11:34;;;;;;;13.10;7.27;;;;;;;-145.18;100.00;46722.91;5072052;28;20269;-65
2023/12/14 09:14:00;;;;;;;12.30;6.73;;;;;;;-145.18;100.00;46717.03;5084703;28;20035;-65
2023/12/14 09:16:25;;;;;;;14.57;6.57;;;;;;;-145.18;100.00;46717.03;5073008;28;20294;-65
2023/12/14 09:18:50;;;;;;;12.37;6.17;;;;;;;-145.18;100.00;46713.13;5078837;28;20111;-65
2023/12/14 09:21:16;;;;;;;10.83;6.40;;;;;;;-145.18;100.00;46715.09;5080754;28;20032;-65
2023/12/14 09:23:41;;;;;;;12.70;6.83;;;;;;;-145.18;100.00;46715.09;5076897;28;20028;-65
2023/12/14 09:26:07;;;;;;;11.33;7.30;;;;;;;-145.18;100.00;46717.03;5082483;28;20111;-65
2023/12/14 09:28:32;;;;;;;12.77;7.17;;;;;;;-145.18;100.00;46717.03;5081873;28;20024;-65
2023/12/14 09:30:57;;;;;;;12.50;7.30;;;;;;;-145.18;100.00;46715.09;5081914;28;20583;-65
2023/12/14 09:33:23;;;;;;;12.07;6.33;;;;;;;-145.18;100.00;46713.13;5074639;28;20040;-65
2023/12/14 09:35:48;;;;;;;11.50;6.63;;;;;;;-145.18;100.00;46711.19;5073981;28;20456;-65
2023/12/14 09:38:16;;;;;;;14.40;7.87;;;;;;;-145.18;100.00;46713.13;5074109;28;20029;-65
2023/12/14 09:40:43;;;;;;;13.13;7.10;;;;;;;-145.18;100.00;46717.03;5074090;28;20036;-65
2023/12/14 09:43:09;;;;;;;14.87;7.57;;;;;;;-145.18;100.00;46715.09;5075426;28;20307;-65
2023/12/14 09:45:34;;;;;;;10.80;6.17;;;;;;;-145.18;100.00;46715.09;5072662;28;20257;-65
2023/12/14 09:48:00;;;;;;;12.23;7.10;;;;;;;-145.18;100.00;46717.03;5073967;28;20055;-65
2023/12/14 09:50:26;;;;;;;13.37;7.57;;;;;;;-145.18;100.00;46715.09;5072876;28;20035;-65
2023/12/14 09:52:51;;;;;;;14.57;7.73;;;;;;;-145.18;100.00;46715.09;5078240;28;20031;-66
2023/12/14 09:55:17;;;;;;;13.50;7.27;;;;;;;-145.18;100.00;46713.13;5093583;28;20031;-65
2023/12/14 09:57:42;;;;;;;11.33;7.20;;;;;;;-145.18;100.00;46719.00;5076386;28;20024;-65
2023/12/14 10:00:13;;;;;;;15.53;7.20;;;;;;;-145.18;100.00;46717.03;5074128;28;20025;-65
2023/12/14 10:02:40;;;;;;;15.63;7.47;;;;;;;-145.18;100.00;46719.00;5073693;28;20025;-73
2023/12/14 10:05:10;;;;;;;14.30;7.43;;;;;;;-145.18;100.00;46717.03;5073886;28;20258;-72
2023/12/14 10:07:42;;;;;;;10.53;6.90;;;;;;;-145.18;100.00;46720.94;5074349;28;20246;-72
2023/12/14 10:10:13;;;;;;;11.40;7.10;;;;;;;-145.18;100.00;46713.13;5084319;28;20264;-73
2023/12/14 10:12:53;;;;;;;11.00;6.87;;;;;;;-145.18;100.00;46717.03;5080222;28;20245;-72
2023/12/14 10:15:18;;;;;;;12.50;6.83;;;;;;;-145.18;100.00;46715.09;5078106;28;20338;-73
2023/12/14 10:17:44;;;;;;;8.80;6.10;;;;;;;-145.18;100.00;46713.13;5073214;28;20308;-72
2023/12/14 10:20:09;;;;;;;10.67;7.13;;;;;;;-145.18;100.00;46715.09;5074359;28;20037;-72
2023/12/14 10:22:37;;;;;;;9.33;6.20;;;;;;;-145.18;100.00;46713.13;5072449;28;20028;-72
2023/12/14 10:25:03;;;;;;;12.20;6.00;;;;;;;-145.18;100.00;46709.22;5086634;28;20480;-73
2023/12/14 10:27:31;;;;;;;11.97;6.60;;;;;;;-145.18;100.00;46711.19;5082785;28;20261;-72
2023/12/14 10:29:57;;;;;;;9.40;6.13;;;;;;;-145.18;100.00;46711.19;5087711;28;20024;-72
2023/12/14 10:32:24;;;;;;;10.20;6.77;;;;;;;-145.18;100.00;46711.19;5084049;28;20257;-73
2023/12/14 10:34:49;;;;;;;9.53;6.50;;;;;;;-145.18;100.00;46715.09;5074944;28;20020;-72
2023/12/14 10:37:15;;;;;;;13.53;7.53;;;;;;;-145.18;100.00;46711.19;5073260;28;20260;-72
2023/12/14 10:39:42;;;;;;;12.23;6.80;;;;;;;-145.18;100.00;46713.13;5074792;28;20028;-72
2023/12/14 10:42:09;;;;;;;11.30;6.30;;;;;;;-145.18;100.00;46713.13;5074592;28;20332;-72
2023/12/14 10:44:36;;;;;;;14.80;6.97;;;;;;;-145.18;100.00;46713.13;5086201;28;20360;-72
2023/12/14 10:47:04;;;;;;;13.37;6.50;;;;;;;-145.18;100.00;46709.22;5084964;28;20763;-72
2023/12/14 10:49:30;;;;;;;12.03;6.27;;;;;;;-145.18;100.00;46715.09;5078050;28;20276;-73
2023/12/14 10:51:57;;;;;;;12.00;6.87;;;;;;;-145.18;100.00;46713.13;5093318;28;20326;-72
2023/12/14 10:54:24;;;;;;;12.80;6.80;;;;;;;-145.18;100.00;46711.19;5085193;28;20048;-73